sensor_id;sensor_type;location;lat;lon;timestamp;pressure;altitude;pressure_sealevel;temperature;humidity
71384;BME280;67558;52.166;5.004;2023-05-23T00:00:17;102044.72;;;19.10;57.13
71384;BME280;67558;52.166;5.004;2023-05-23T00:02:43;102052.84;;;19.10;57.29
71384;BME280;67558;52.166;5.004;2023-05-23T00:05:08;102057.22;;;19.06;57.26
71384;BME280;67558;52.166;5.004;2023-05-23T00:07:34;102059.03;;;18.92;57.48
71384;BME280;67558;52.166;5.004;2023-05-23T00:09:59;102054.50;;;18.87;57.45
71384;BME280;67558;52.166;5.004;2023-05-23T00:12:25;102044.53;;;18.82;57.75
71384;BME280;67558;52.166;5.004;2023-05-23T00:14:51;102054.50;;;18.87;57.61
71384;BME280;67558;52.166;5.004;2023-05-23T00:17:17;102062.47;;;18.78;57.77
71384;BME280;67558;52.166;5.004;2023-05-23T00:19:43;102068.50;;;18.70;57.81
71384;BME280;67558;52.166;5.004;2023-05-23T00:22:11;102065.91;;;18.60;58.21
71384;BME280;67558;52.166;5.004;2023-05-23T00:24:36;102060.28;;;18.56;58.26
71384;BME280;67558;52.166;5.004;2023-05-23T00:27:02;102066.50;;;18.57;58.50
71384;BME280;67558;52.166;5.004;2023-05-23T00:29:27;102055.69;;;18.52;58.45
71384;BME280;67558;52.166;5.004;2023-05-23T00:31:52;102064.41;;;18.49;58.60
71384;BME280;67558;52.166;5.004;2023-05-23T00:34:18;102074.44;;;18.48;58.88
71384;BME280;67558;52.166;5.004;2023-05-23T00:36:44;102070.53;;;18.35;58.70
71384;BME280;67558;52.166;5.004;2023-05-23T00:39:11;102068.88;;;18.34;58.73
71384;BME280;67558;52.166;5.004;2023-05-23T00:41:46;102072.72;;;18.33;58.74
71384;BME280;67558;52.166;5.004;2023-05-23T00:44:11;102076.50;;;18.32;58.86
71384;BME280;67558;52.166;5.004;2023-05-23T00:46:37;102083.53;;;18.33;59.06
71384;BME280;67558;52.166;5.004;2023-05-23T00:49:03;102082.03;;;18.22;58.98
71384;BME280;67558;52.166;5.004;2023-05-23T00:51:28;102074.53;;;18.14;59.17
71384;BME280;67558;52.166;5.004;2023-05-23T00:53:54;102082.13;;;18.12;58.94
71384;BME280;67558;52.166;5.004;2023-05-23T00:56:20;102071.84;;;18.09;59.18
71384;BME280;67558;52.166;5.004;2023-05-23T00:58:45;102088.63;;;18.11;59.17
71384;BME280;67558;52.166;5.004;2023-05-23T01:01:11;102071.72;;;17.95;59.11
71384;BME280;67558;52.166;5.004;2023-05-23T01:03:37;102090.34;;;18.01;59.28
71384;BME280;67558;52.166;5.004;2023-05-23T01:06:03;102081.22;;;17.92;59.12
71384;BME280;67558;52.166;5.004;2023-05-23T01:08:28;102089.03;;;17.94;59.35
71384;BME280;67558;52.166;5.004;2023-05-23T01:10:56;102088.22;;;17.93;59.29
71384;BME280;67558;52.166;5.004;2023-05-23T01:13:41;102095.31;;;17.89;59.56
71384;BME280;67558;52.166;5.004;2023-05-23T01:16:16;102086.66;;;17.87;59.34
71384;BME280;67558;52.166;5.004;2023-05-23T01:18:45;102091.28;;;17.81;59.78
71384;BME280;67558;52.166;5.004;2023-05-23T01:21:16;102086.72;;;17.77;59.58
71384;BME280;67558;52.166;5.004;2023-05-23T01:29:30;102090.50;;;17.76;60.17
71384;BME280;67558;52.166;5.004;2023-05-23T01:31:57;102092.47;;;17.70;60.13
71384;BME280;67558;52.166;5.004;2023-05-23T01:34:23;102087.91;;;17.60;60.30
71384;BME280;67558;52.166;5.004;2023-05-23T01:36:52;102088.44;;;17.63;60.04
71384;BME280;67558;52.166;5.004;2023-05-23T01:39:19;102095.75;;;17.62;60.54
71384;BME280;67558;52.166;5.004;2023-05-23T01:41:44;102098.16;;;17.64;60.65
71384;BME280;67558;52.166;5.004;2023-05-23T01:44:10;102099.81;;;17.65;60.70
71384;BME280;67558;52.166;5.004;2023-05-23T01:46:36;102106.84;;;17.60;60.48
71384;BME280;67558;52.166;5.004;2023-05-23T01:49:03;102100.91;;;17.58;60.82
71384;BME280;67558;52.166;5.004;2023-05-23T01:51:30;102095.50;;;17.58;60.79
71384;BME280;67558;52.166;5.004;2023-05-23T01:53:56;102109.84;;;17.59;61.03
71384;BME280;67558;52.166;5.004;2023-05-23T01:56:22;102086.06;;;17.56;60.68
71384;BME280;67558;52.166;5.004;2023-05-23T01:58:47;102092.31;;;17.51;60.58
71384;BME280;67558;52.166;5.004;2023-05-23T02:01:13;102098.28;;;17.48;60.77
71384;BME280;67558;52.166;5.004;2023-05-23T02:03:39;102097.72;;;17.51;60.53
71384;BME280;67558;52.166;5.004;2023-05-23T02:06:05;102101.50;;;17.50;60.54
71384;BME280;67558;52.166;5.004;2023-05-23T02:08:30;102088.56;;;17.47;60.42
71384;BME280;67558;52.166;5.004;2023-05-23T02:10:55;102086.59;;;17.53;60.54
71384;BME280;67558;52.166;5.004;2023-05-23T02:13:21;102091.16;;;17.63;60.13
71384;BME280;67558;52.166;5.004;2023-05-23T02:15:46;102081.72;;;17.60;60.08
71384;BME280;67558;52.166;5.004;2023-05-23T02:18:11;102097.34;;;17.68;60.27
71384;BME280;67558;52.166;5.004;2023-05-23T02:20:37;102093.25;;;17.71;59.93
71384;BME280;67558;52.166;5.004;2023-05-23T02:23:02;102101.59;;;17.79;59.62
71384;BME280;67558;52.166;5.004;2023-05-23T02:25:28;102104.03;;;17.81;59.59
71384;BME280;67558;52.166;5.004;2023-05-23T02:27:53;102106.75;;;17.76;59.54
71384;BME280;67558;52.166;5.004;2023-05-23T02:30:18;102104.28;;;17.79;59.62
71384;BME280;67558;52.166;5.004;2023-05-23T02:32:44;102118.91;;;17.84;59.63
71384;BME280;67558;52.166;5.004;2023-05-23T02:35:10;102119.72;;;17.84;59.53
71384;BME280;67558;52.166;5.004;2023-05-23T02:37:36;102112.13;;;17.81;59.51
71384;BME280;67558;52.166;5.004;2023-05-23T02:40:01;102122.69;;;17.83;59.36
71384;BME280;67558;52.166;5.004;2023-05-23T02:42:27;102111.88;;;17.77;59.52
71384;BME280;67558;52.166;5.004;2023-05-23T02:44:52;102091.75;;;17.54;59.19
71384;BME280;67558;52.166;5.004;2023-05-23T02:47:18;102123.31;;;17.69;59.82
71384;BME280;67558;52.166;5.004;2023-05-23T02:49:43;102133.06;;;17.70;59.69
71384;BME280;67558;52.166;5.004;2023-05-23T02:52:08;102130.34;;;17.70;59.47
71384;BME280;67558;52.166;5.004;2023-05-23T02:54:34;102126.00;;;17.69;59.90
71384;BME280;67558;52.166;5.004;2023-05-23T02:56:59;102138.22;;;17.67;59.84
71384;BME280;67558;52.166;5.004;2023-05-23T02:59:25;102138.75;;;17.69;59.31
71384;BME280;67558;52.166;5.004;2023-05-23T03:01:50;102149.06;;;17.61;59.24
71384;BME280;67558;52.166;5.004;2023-05-23T03:04:16;102142.84;;;17.61;59.42
71384;BME280;67558;52.166;5.004;2023-05-23T03:06:42;102150.19;;;17.55;59.37
71384;BME280;67558;52.166;5.004;2023-05-23T03:09:09;102144.25;;;17.48;59.26
71384;BME280;67558;52.166;5.004;2023-05-23T03:11:35;102100.06;;;17.18;59.15
71384;BME280;67558;52.166;5.004;2023-05-23T03:14:00;102142.97;;;17.40;59.33
71384;BME280;67558;52.166;5.004;2023-05-23T03:16:26;102138.94;;;17.38;59.21
71384;BME280;67558;52.166;5.004;2023-05-23T03:18:51;102137.25;;;17.42;58.98
71384;BME280;67558;52.166;5.004;2023-05-23T03:21:16;102142.41;;;17.44;59.01
71384;BME280;67558;52.166;5.004;2023-05-23T03:23:42;102139.47;;;17.35;59.02
71384;BME280;67558;52.166;5.004;2023-05-23T03:26:07;102140.56;;;17.29;58.96
71384;BME280;67558;52.166;5.004;2023-05-23T03:28:32;102130.88;;;17.23;59.01
71384;BME280;67558;52.166;5.004;2023-05-23T03:30:58;102137.34;;;17.27;59.17
71384;BME280;67558;52.166;5.004;2023-05-23T03:33:23;102156.84;;;17.18;59.03
71384;BME280;67558;52.166;5.004;2023-05-23T03:35:49;102159.31;;;17.15;58.75
71384;BME280;67558;52.166;5.004;2023-05-23T03:38:15;102139.31;;;17.11;58.40
71384;BME280;67558;52.166;5.004;2023-05-23T03:40:41;102146.59;;;17.15;58.86
71384;BME280;67558;52.166;5.004;2023-05-23T03:43:07;102152.00;;;17.15;58.69
71384;BME280;67558;52.166;5.004;2023-05-23T03:45:33;102154.44;;;17.17;58.50
71384;BME280;67558;52.166;5.004;2023-05-23T03:47:59;102152.53;;;17.17;58.78
71384;BME280;67558;52.166;5.004;2023-05-23T03:50:25;102155.50;;;17.16;58.62
71384;BME280;67558;52.166;5.004;2023-05-23T03:52:51;102159.56;;;17.13;58.71
71384;BME280;67558;52.166;5.004;2023-05-23T03:55:16;102168.00;;;17.07;58.38
71384;BME280;67558;52.166;5.004;2023-05-23T03:57:45;102166.38;;;17.06;58.78
71384;BME280;67558;52.166;5.004;2023-05-23T04:00:11;102162.84;;;17.05;58.36
71384;BME280;67558;52.166;5.004;2023-05-23T04:02:37;102168.56;;;16.93;58.69
71384;BME280;67558;52.166;5.004;2023-05-23T04:05:04;102176.41;;;16.90;58.54
71384;BME280;67558;52.166;5.004;2023-05-23T04:07:31;102190.75;;;16.85;58.83
71384;BME280;67558;52.166;5.004;2023-05-23T04:09:59;102178.56;;;16.77;58.47
71384;BME280;67558;52.166;5.004;2023-05-23T04:12:24;102182.38;;;16.71;58.63
71384;BME280;67558;52.166;5.004;2023-05-23T04:14:50;102192.38;;;16.71;58.35
71384;BME280;67558;52.166;5.004;2023-05-23T04:17:15;102198.88;;;16.70;58.75
71384;BME280;67558;52.166;5.004;2023-05-23T04:19:40;102186.41;;;16.69;58.43
71384;BME280;67558;52.166;5.004;2023-05-23T04:22:05;102200.25;;;16.42;58.39
71384;BME280;67558;52.166;5.004;2023-05-23T04:24:31;102217.50;;;16.56;58.79
71384;BME280;67558;52.166;5.004;2023-05-23T04:26:56;102201.59;;;16.54;58.61
71384;BME280;67558;52.166;5.004;2023-05-23T04:29:23;102207.78;;;16.55;58.27
71384;BME280;67558;52.166;5.004;2023-05-23T04:31:50;102201.88;;;16.48;58.17
71384;BME280;67558;52.166;5.004;2023-05-23T04:34:15;102213.72;;;16.47;58.13
71384;BME280;67558;52.166;5.004;2023-05-23T04:36:41;102209.94;;;16.43;58.35
71384;BME280;67558;52.166;5.004;2023-05-23T04:39:08;102212.66;;;16.37;58.39
71384;BME280;67558;52.166;5.004;2023-05-23T04:41:34;102194.31;;;16.24;58.45
71384;BME280;67558;52.166;5.004;2023-05-23T04:44:00;102217.25;;;16.32;58.40
71384;BME280;67558;52.166;5.004;2023-05-23T04:46:26;102225.59;;;16.30;58.45
71384;BME280;67558;52.166;5.004;2023-05-23T04:48:52;102221.84;;;16.31;58.58
71384;BME280;67558;52.166;5.004;2023-05-23T04:51:18;102230.22;;;16.35;58.58
71384;BME280;67558;52.166;5.004;2023-05-23T04:53:45;102245.59;;;16.29;57.95
71384;BME280;67558;52.166;5.004;2023-05-23T04:56:11;102224.00;;;16.24;57.69
71384;BME280;67558;52.166;5.004;2023-05-23T04:58:36;102232.88;;;16.14;58.19
71384;BME280;67558;52.166;5.004;2023-05-23T05:01:02;102244.50;;;16.20;57.81
71384;BME280;67558;52.166;5.004;2023-05-23T05:03:27;102240.72;;;16.16;58.18
71384;BME280;67558;52.166;5.004;2023-05-23T05:05:52;102237.22;;;16.15;58.08
71384;BME280;67558;52.166;5.004;2023-05-23T05:08:18;102252.09;;;16.28;57.74
71384;BME280;67558;52.166;5.004;2023-05-23T05:10:46;102251.53;;;16.31;57.54
71384;BME280;67558;52.166;5.004;2023-05-23T05:13:11;102256.41;;;16.24;57.86
71384;BME280;67558;52.166;5.004;2023-05-23T05:15:37;102264.47;;;16.19;57.65
71384;BME280;67558;52.166;5.004;2023-05-23T05:18:02;102276.03;;;16.04;56.31
71384;BME280;67558;52.166;5.004;2023-05-23T05:20:27;102280.66;;;16.04;57.19
71384;BME280;67558;52.166;5.004;2023-05-23T05:22:56;102280.38;;;16.05;56.05
71384;BME280;67558;52.166;5.004;2023-05-23T05:25:22;102282.81;;;16.07;56.53
71384;BME280;67558;52.166;5.004;2023-05-23T05:27:48;102289.84;;;16.08;56.48
71384;BME280;67558;52.166;5.004;2023-05-23T05:30:13;102282.78;;;16.02;56.14
71384;BME280;67558;52.166;5.004;2023-05-23T05:32:39;102280.63;;;15.99;56.21
71384;BME280;67558;52.166;5.004;2023-05-23T05:35:04;102293.34;;;16.03;56.22
71384;BME280;67558;52.166;5.004;2023-05-23T05:37:32;102289.28;;;16.01;56.22
71384;BME280;67558;52.166;5.004;2023-05-23T05:39:58;102286.56;;;15.95;55.58
71384;BME280;67558;52.166;5.004;2023-05-23T05:42:23;102294.66;;;15.95;55.51
71384;BME280;67558;52.166;5.004;2023-05-23T05:44:49;102294.63;;;15.85;55.48
71384;BME280;67558;52.166;5.004;2023-05-23T05:47:14;102307.34;;;15.90;55.78
71384;BME280;67558;52.166;5.004;2023-05-23T05:49:40;102284.91;;;15.79;55.84
71384;BME280;67558;52.166;5.004;2023-05-23T05:52:06;102307.59;;;15.93;55.89
71384;BME280;67558;52.166;5.004;2023-05-23T05:54:32;102320.00;;;15.89;55.80
71384;BME280;67558;52.166;5.004;2023-05-23T05:56:57;102320.81;;;15.90;56.04
71384;BME280;67558;52.166;5.004;2023-05-23T05:59:23;102324.84;;;15.87;55.84
71384;BME280;67558;52.166;5.004;2023-05-23T06:01:48;102322.97;;;15.88;55.61
71384;BME280;67558;52.166;5.004;2023-05-23T06:04:15;102314.31;;;15.86;55.23
71384;BME280;67558;52.166;5.004;2023-05-23T06:06:41;102331.88;;;15.88;55.17
71384;BME280;67558;52.166;5.004;2023-05-23T06:09:06;102333.47;;;15.84;55.28
71384;BME280;67558;52.166;5.004;2023-05-23T06:11:31;102323.78;;;15.88;55.04
71384;BME280;67558;52.166;5.004;2023-05-23T06:13:57;102322.38;;;15.81;55.33
71384;BME280;67558;52.166;5.004;2023-05-23T06:16:23;102329.13;;;15.73;55.32
71384;BME280;67558;52.166;5.004;2023-05-23T06:18:48;102329.13;;;15.78;55.50
71384;BME280;67558;52.166;5.004;2023-05-23T06:21:13;102326.72;;;15.82;55.53
71384;BME280;67558;52.166;5.004;2023-05-23T06:23:39;102336.13;;;15.74;55.77
71384;BME280;67558;52.166;5.004;2023-05-23T06:26:04;102318.56;;;15.71;56.15
71384;BME280;67558;52.166;5.004;2023-05-23T06:28:34;102336.66;;;15.76;56.30
71384;BME280;67558;52.166;5.004;2023-05-23T06:31:00;102336.94;;;15.74;56.74
71384;BME280;67558;52.166;5.004;2023-05-23T06:33:27;102333.72;;;15.77;56.47
71384;BME280;67558;52.166;5.004;2023-05-23T06:35:52;102322.63;;;15.74;56.72
71384;BME280;67558;52.166;5.004;2023-05-23T06:38:17;102332.91;;;15.77;56.84
71384;BME280;67558;52.166;5.004;2023-05-23T06:40:43;102325.63;;;15.72;56.66
71384;BME280;67558;52.166;5.004;2023-05-23T06:43:08;102329.94;;;15.79;57.11
71384;BME280;67558;52.166;5.004;2023-05-23T06:45:33;102321.56;;;15.75;57.24
71384;BME280;67558;52.166;5.004;2023-05-23T06:47:59;102329.88;;;15.68;57.87
71384;BME280;67558;52.166;5.004;2023-05-23T06:50:25;102340.97;;;15.72;58.01
71384;BME280;67558;52.166;5.004;2023-05-23T06:52:50;102335.56;;;15.72;57.85
71384;BME280;67558;52.166;5.004;2023-05-23T06:55:16;102345.22;;;15.68;57.95
71384;BME280;67558;52.166;5.004;2023-05-23T06:57:43;102346.31;;;15.67;57.96
71384;BME280;67558;52.166;5.004;2023-05-23T07:00:09;102352.75;;;15.61;58.02
71384;BME280;67558;52.166;5.004;2023-05-23T07:02:35;102353.31;;;15.63;57.74
71384;BME280;67558;52.166;5.004;2023-05-23T07:05:00;102359.25;;;15.70;57.18
71384;BME280;67558;52.166;5.004;2023-05-23T07:07:26;102353.59;;;15.66;56.46
71384;BME280;67558;52.166;5.004;2023-05-23T07:09:51;102354.88;;;15.59;56.35
71384;BME280;67558;52.166;5.004;2023-05-23T07:12:16;102360.59;;;15.67;55.62
71384;BME280;67558;52.166;5.004;2023-05-23T07:14:42;102360.09;;;15.70;55.46
71384;BME280;67558;52.166;5.004;2023-05-23T07:17:07;102359.84;;;15.72;55.41
71384;BME280;67558;52.166;5.004;2023-05-23T07:19:32;102364.44;;;15.76;54.69
71384;BME280;67558;52.166;5.004;2023-05-23T07:21:58;102354.25;;;15.89;54.63
71384;BME280;67558;52.166;5.004;2023-05-23T07:24:24;102357.81;;;16.00;54.57
71384;BME280;67558;52.166;5.004;2023-05-23T07:26:50;102364.31;;;16.04;54.75
71384;BME280;67558;52.166;5.004;2023-05-23T07:29:15;102371.34;;;16.10;54.37
71384;BME280;67558;52.166;5.004;2023-05-23T07:31:41;102368.16;;;16.18;54.21
71384;BME280;67558;52.166;5.004;2023-05-23T07:34:06;102361.69;;;16.24;53.92
71384;BME280;67558;52.166;5.004;2023-05-23T07:36:32;102369.78;;;16.24;53.81
71384;BME280;67558;52.166;5.004;2023-05-23T07:38:59;102374.09;;;16.25;53.48
71384;BME280;67558;52.166;5.004;2023-05-23T07:41:25;102375.72;;;16.21;53.18
71384;BME280;67558;52.166;5.004;2023-05-23T07:43:50;102371.41;;;16.25;52.98
71384;BME280;67558;52.166;5.004;2023-05-23T07:46:16;102371.97;;;16.32;52.85
71384;BME280;67558;52.166;5.004;2023-05-23T07:48:41;102372.25;;;16.36;52.70
71384;BME280;67558;52.166;5.004;2023-05-23T07:51:07;102358.50;;;16.37;52.75
71384;BME280;67558;52.166;5.004;2023-05-23T07:53:32;102367.69;;;16.47;52.56
71384;BME280;67558;52.166;5.004;2023-05-23T07:55:57;102365.53;;;16.54;52.39
71384;BME280;67558;52.166;5.004;2023-05-23T07:58:23;102379.56;;;16.56;51.91
71384;BME280;67558;52.166;5.004;2023-05-23T08:00:48;102389.06;;;16.58;52.13
71384;BME280;67558;52.166;5.004;2023-05-23T08:03:14;102382.28;;;16.51;51.86
71384;BME280;67558;52.166;5.004;2023-05-23T08:05:41;102386.59;;;16.42;51.86
71384;BME280;67558;52.166;5.004;2023-05-23T08:08:06;102384.44;;;16.44;51.92
71384;BME280;67558;52.166;5.004;2023-05-23T08:10:31;102390.91;;;16.43;51.84
71384;BME280;67558;52.166;5.004;2023-05-23T08:12:58;102385.78;;;16.46;51.70
71384;BME280;67558;52.166;5.004;2023-05-23T08:15:24;102389.03;;;16.48;51.70
71384;BME280;67558;52.166;5.004;2023-05-23T08:17:50;102384.72;;;16.57;51.92
71384;BME280;67558;52.166;5.004;2023-05-23T08:20:16;102376.59;;;16.47;51.76
71384;BME280;67558;52.166;5.004;2023-05-23T08:22:41;102407.16;;;16.68;51.46
71384;BME280;67558;52.166;5.004;2023-05-23T08:25:06;102400.16;;;16.77;51.28
71384;BME280;67558;52.166;5.004;2023-05-23T08:27:32;102406.34;;;16.73;50.11
71384;BME280;67558;52.166;5.004;2023-05-23T08:29:59;102401.25;;;16.76;51.02
71384;BME280;67558;52.166;5.004;2023-05-23T08:32:25;102410.41;;;16.75;50.69
71384;BME280;67558;52.166;5.004;2023-05-23T08:34:50;102399.88;;;16.64;51.07
71384;BME280;67558;52.166;5.004;2023-05-23T08:37:16;102407.44;;;16.72;50.73
71384;BME280;67558;52.166;5.004;2023-05-23T08:39:41;102396.09;;;16.70;50.92
71384;BME280;67558;52.166;5.004;2023-05-23T08:42:06;102385.56;;;16.78;50.35
71384;BME280;67558;52.166;5.004;2023-05-23T08:44:32;102400.19;;;17.03;50.17
71384;BME280;67558;52.166;5.004;2023-05-23T08:47:00;102409.69;;;17.06;49.05
71384;BME280;67558;52.166;5.004;2023-05-23T08:49:29;102416.97;;;17.15;49.41
71384;BME280;67558;52.166;5.004;2023-05-23T08:52:00;102403.44;;;17.20;48.01
71384;BME280;67558;52.166;5.004;2023-05-23T08:54:26;102415.09;;;17.21;48.41
71384;BME280;67558;52.166;5.004;2023-05-23T08:56:53;102418.31;;;17.33;48.67
71384;BME280;67558;52.166;5.004;2023-05-23T08:59:20;102403.19;;;17.32;48.41
71384;BME280;67558;52.166;5.004;2023-05-23T09:01:47;102429.94;;;17.29;48.48
71384;BME280;67558;52.166;5.004;2023-05-23T09:04:12;102412.09;;;17.28;48.88
71384;BME280;67558;52.166;5.004;2023-05-23T09:06:38;102423.44;;;17.40;49.11
71384;BME280;67558;52.166;5.004;2023-05-23T09:09:03;102432.91;;;17.37;48.38
71384;BME280;67558;52.166;5.004;2023-05-23T09:11:29;102436.97;;;17.55;47.70
71384;BME280;67558;52.166;5.004;2023-05-23T09:13:58;102430.97;;;17.64;47.63
71384;BME280;67558;52.166;5.004;2023-05-23T09:16:31;102421.00;;;17.64;47.94
71384;BME280;67558;52.166;5.004;2023-05-23T09:18:56;102424.50;;;17.75;48.13
71384;BME280;67558;52.166;5.004;2023-05-23T09:21:23;102433.94;;;17.77;47.92
71384;BME280;67558;52.166;5.004;2023-05-23T09:23:49;102446.13;;;17.80;48.03
71384;BME280;67558;52.166;5.004;2023-05-23T09:26:14;102438.56;;;17.77;47.77
71384;BME280;67558;52.166;5.004;2023-05-23T09:28:42;102432.59;;;17.75;47.76
71384;BME280;67558;52.166;5.004;2023-05-23T09:31:08;102454.22;;;17.80;47.49
71384;BME280;67558;52.166;5.004;2023-05-23T09:33:48;102449.66;;;17.75;46.59
71384;BME280;67558;52.166;5.004;2023-05-23T09:36:17;102456.97;;;17.75;47.82
71384;BME280;67558;52.166;5.004;2023-05-23T09:38:46;102450.19;;;17.83;47.73
71384;BME280;67558;52.166;5.004;2023-05-23T09:41:13;102451.84;;;17.84;47.87
71384;BME280;67558;52.166;5.004;2023-05-23T09:43:38;102455.88;;;17.86;47.96
71384;BME280;67558;52.166;5.004;2023-05-23T09:46:09;102445.56;;;17.78;46.97
71384;BME280;67558;52.166;5.004;2023-05-23T09:48:34;102422.06;;;17.63;47.39
71384;BME280;67558;52.166;5.004;2023-05-23T09:51:09;102448.03;;;17.79;46.88
71384;BME280;67558;52.166;5.004;2023-05-23T09:53:35;102463.19;;;17.75;47.59
71384;BME280;67558;52.166;5.004;2023-05-23T09:56:03;102452.09;;;17.72;47.75
71384;BME280;67558;52.166;5.004;2023-05-23T09:58:30;102450.19;;;17.77;47.74
71384;BME280;67558;52.166;5.004;2023-05-23T10:00:59;102453.19;;;17.71;47.00
71384;BME280;67558;52.166;5.004;2023-05-23T10:03:38;102452.09;;;17.67;47.11
71384;BME280;67558;52.166;5.004;2023-05-23T10:06:07;102472.13;;;17.71;46.37
71384;BME280;67558;52.166;5.004;2023-05-23T10:08:39;102452.09;;;17.56;46.95
71384;BME280;67558;52.166;5.004;2023-05-23T10:13:49;102453.47;;;17.64;47.67
71384;BME280;67558;52.166;5.004;2023-05-23T10:18:55;102468.63;;;17.70;47.40
71384;BME280;67558;52.166;5.004;2023-05-23T10:21:42;102465.34;;;17.73;47.67
71384;BME280;67558;52.166;5.004;2023-05-23T10:24:13;102465.63;;;17.72;47.42
71384;BME280;67558;52.166;5.004;2023-05-23T10:26:39;102475.63;;;17.76;47.24
71384;BME280;67558;52.166;5.004;2023-05-23T10:29:05;102470.47;;;17.85;47.11
71384;BME280;67558;52.166;5.004;2023-05-23T10:31:31;102483.50;;;17.88;46.88
71384;BME280;67558;52.166;5.004;2023-05-23T10:37:03;102482.41;;;17.84;46.25
71384;BME280;67558;52.166;5.004;2023-05-23T10:39:51;102481.31;;;17.95;46.21
71384;BME280;67558;52.166;5.004;2023-05-23T10:45:17;102475.06;;;17.95;45.67
71384;BME280;67558;52.166;5.004;2023-05-23T10:47:45;102472.88;;;18.02;46.51
71384;BME280;67558;52.166;5.004;2023-05-23T10:50:14;102474.53;;;17.98;46.66
71384;BME280;67558;52.166;5.004;2023-05-23T10:52:41;102481.81;;;18.08;46.15
71384;BME280;67558;52.166;5.004;2023-05-23T10:55:14;102489.41;;;18.06;45.92
71384;BME280;67558;52.166;5.004;2023-05-23T10:57:42;102484.53;;;18.08;45.99
71384;BME280;67558;52.166;5.004;2023-05-23T11:00:13;102483.19;;;18.05;46.04
71384;BME280;67558;52.166;5.004;2023-05-23T11:02:52;102475.31;;;18.04;46.03
71384;BME280;67558;52.166;5.004;2023-05-23T11:10:31;102491.06;;;17.96;46.20
71384;BME280;67558;52.166;5.004;2023-05-23T11:13:05;102490.28;;;17.86;46.05
71384;BME280;67558;52.166;5.004;2023-05-23T11:15:40;102474.28;;;17.79;46.35
71384;BME280;67558;52.166;5.004;2023-05-23T11:18:06;102482.69;;;17.83;46.50
71384;BME280;67558;52.166;5.004;2023-05-23T11:20:33;102482.41;;;17.84;46.01
71384;BME280;67558;52.166;5.004;2023-05-23T11:23:02;102485.38;;;17.93;46.52
71384;BME280;67558;52.166;5.004;2023-05-23T11:25:50;102478.84;;;17.94;44.53
71384;BME280;67558;52.166;5.004;2023-05-23T11:28:16;102473.97;;;18.06;45.59
71384;BME280;67558;52.166;5.004;2023-05-23T11:30:42;102471.25;;;18.06;45.66
71384;BME280;67558;52.166;5.004;2023-05-23T11:33:12;102475.03;;;18.10;45.25
71384;BME280;67558;52.166;5.004;2023-05-23T11:35:43;102472.56;;;18.19;45.09
71384;BME280;67558;52.166;5.004;2023-05-23T11:38:09;102477.94;;;18.29;44.87
71384;BME280;67558;52.166;5.004;2023-05-23T11:40:39;102475.22;;;18.34;44.91
71384;BME280;67558;52.166;5.004;2023-05-23T11:43:09;102477.38;;;18.37;44.81
71384;BME280;67558;52.166;5.004;2023-05-23T11:45:36;102493.63;;;18.37;44.67
71384;BME280;67558;52.166;5.004;2023-05-23T11:48:11;102479.28;;;18.37;43.62
71384;BME280;67558;52.166;5.004;2023-05-23T11:53:13;102486.31;;;18.38;44.15
71384;BME280;67558;52.166;5.004;2023-05-23T11:55:47;102493.63;;;18.32;43.35
71384;BME280;67558;52.166;5.004;2023-05-23T11:58:12;102475.81;;;18.21;44.15
71384;BME280;67558;52.166;5.004;2023-05-23T12:00:44;102480.13;;;18.27;44.14
71384;BME280;67558;52.166;5.004;2023-05-23T12:03:10;102481.72;;;18.28;44.44
71384;BME280;67558;52.166;5.004;2023-05-23T12:05:36;102494.72;;;18.41;44.47
71384;BME280;67558;52.166;5.004;2023-05-23T12:08:01;102468.47;;;18.32;44.20
71384;BME280;67558;52.166;5.004;2023-05-23T12:10:27;102493.59;;;18.48;43.71
71384;BME280;67558;52.166;5.004;2023-05-23T12:12:53;102497.91;;;18.49;43.74
71384;BME280;67558;52.166;5.004;2023-05-23T12:15:24;102510.13;;;18.41;43.36
71384;BME280;67558;52.166;5.004;2023-05-23T12:17:52;102485.25;;;18.34;43.35
71384;BME280;67558;52.166;5.004;2023-05-23T12:20:18;102496.31;;;18.48;43.81
71384;BME280;67558;52.166;5.004;2023-05-23T12:22:44;102494.72;;;18.41;42.93
71384;BME280;67558;52.166;5.004;2023-05-23T12:25:10;102493.88;;;18.41;42.77
71384;BME280;67558;52.166;5.004;2023-05-23T12:27:35;102498.50;;;18.46;42.85
71384;BME280;67558;52.166;5.004;2023-05-23T12:30:09;102488.69;;;18.50;42.47
71384;BME280;67558;52.166;5.004;2023-05-23T12:32:42;102494.91;;;18.55;42.94
71384;BME280;67558;52.166;5.004;2023-05-23T12:35:09;102501.16;;;18.51;42.55
71384;BME280;67558;52.166;5.004;2023-05-23T12:37:41;102495.78;;;18.40;42.41
71384;BME280;67558;52.166;5.004;2023-05-23T12:40:17;102501.75;;;18.37;42.34
71384;BME280;67558;52.166;5.004;2023-05-23T12:42:49;102484.47;;;18.23;42.30
71384;BME280;67558;52.166;5.004;2023-05-23T12:45:17;102488.81;;;18.19;41.67
71384;BME280;67558;52.166;5.004;2023-05-23T12:47:42;102502.06;;;18.31;41.64
71384;BME280;67558;52.166;5.004;2023-05-23T12:50:08;102487.72;;;18.25;41.41
71384;BME280;67558;52.166;5.004;2023-05-23T12:52:33;102497.97;;;18.33;41.62
71384;BME280;67558;52.166;5.004;2023-05-23T12:55:01;102503.91;;;18.40;42.20
71384;BME280;67558;52.166;5.004;2023-05-23T12:57:27;102499.31;;;18.36;42.35
71384;BME280;67558;52.166;5.004;2023-05-23T12:59:52;102511.78;;;18.42;42.27
71384;BME280;67558;52.166;5.004;2023-05-23T13:02:17;102507.97;;;18.48;42.42
71384;BME280;67558;52.166;5.004;2023-05-23T13:04:43;102494.94;;;18.50;42.50
71384;BME280;67558;52.166;5.004;2023-05-23T13:07:09;102508.50;;;18.45;42.98
71384;BME280;67558;52.166;5.004;2023-05-23T13:09:34;102516.38;;;18.36;42.94
71384;BME280;67558;52.166;5.004;2023-05-23T13:12:00;102515.03;;;18.34;42.64